Forest fire From: 19-07-2018 20:00 Until: 20-07-2018 16:00 warning for: Forest fire Level: Yellow info button
suomi:
Metsäpalovaroitus on voimassa.

svenska:
Varning för skogsbrand gäller.

english:
A forest fire warning is in force. 

Extreme high temperature From: 19-07-2018 20:00 Until: 23:00 warning for: Extreme high temperature Level: Yellow info button
suomi:
Hellevaroitus: Lähivuorokauden aikana on odotettavissa tukalaa hellettä.

svenska:
Varning för värmebölja: Under det närmaste dygnet är den svåra hettan att vänta.

english:
Heat wave warning: Warm weather is expected during the coming 24 hours. 


Thunder radar more information blitzortung!


Löydät sääaseman tiedot myös:

European Weather Network

Finland Weather Exchange

Weather Underground

AWEKAS



Weather Underground säähistoriasivu

Päivittäin yhteenveto Syyskuu 20, 2017 Yksiköt:  Englantilaiset    Metriset   Molemmat
« Edellinen Päivä
Seuraava Päivä »
Päivittäin Viikoittain Kuukausittain Vuosittain Mukautettu
  Korkea: Matala: Keskiarvo:
Lämpötila: TemperatureC °F 5.9 °F 7.7 °F
Kastepiste: DewpointC °F 5.5 °F 7.2 °F
Kosteus: Humidity % 92 % 96 %
Tuulen nopeus: WindSpeedKMH mph 0.0 mph 0 mph
Tuulenpuuska: WindSpeedGustKMH mph - -
Tuuli:- - North
Ilmanpaine: PressurehPa in 1015.8 in -
Sade: 0.0 in    
Historical Graphs
 
 
Taulukkotiedot Syyskuu 20, 2017
Aika Lämpötila Kastepiste Ilmanpaine Tuuli Tuulen nopeus Tuulenpuuska Kosteus Sademäärä (tunneittain)
TemperatureC °F DewpointC °F PressurehPa in Calm     Humidity % HourlyPrecipMM in
00:00 6.0 °F 5.6 °F 1015.8 in Calm   1.6 mph 97 % 0.0 in
00:15 6.0 °F 5.6 °F 1015.8 in Calm     97 % 0.0 in
00:30 5.9 °F 5.5 °F 1016.1 in Calm     97 % 0.0 in
00:45 5.9 °F 5.7 °F 1016.1 in Calm     98 % 0.0 in
01:00 6.0 °F 5.7 °F 1016.1 in Calm     98 % 0.0 in
01:15 6.1 °F 5.8 °F 1016.5 in Calm     98 % 0.0 in
01:30 6.1 °F 5.8 °F 1016.5 in Calm     98 % 0.0 in
01:45 6.1 °F 5.8 °F 1016.5 in Calm     98 % 0.0 in
02:00 6.2 °F 5.9 °F 1016.8 in Calm     98 % 0.0 in
02:15 6.2 °F 5.7 °F 1016.8 in Calm   6.4 mph 97 % 0.0 in
02:30 6.2 °F 5.9 °F 1016.8 in Calm     98 % 0.0 in
02:45 6.3 °F 6.0 °F 1017.2 in Calm   1.6 mph 98 % 0.0 in
03:00 6.4 °F 6.2 °F 1017.2 in Calm     98 % 0.0 in
03:15 6.4 °F 6.2 °F 1017.2 in Calm     98 % 0.0 in
03:30 6.6 °F 6.3 °F 1017.5 in Calm     98 % 0.0 in
03:45 6.7 °F 6.4 °F 1017.5 in Calm   1.6 mph 98 % 0.0 in
04:00 6.8 °F 6.5 °F 1017.5 in Calm   1.6 mph 98 % 0.0 in
04:15 6.8 °F 6.5 °F 1017.5 in Calm     98 % 0.0 in
04:30 7.1 °F 6.8 °F 1017.5 in Calm   3.2 mph 98 % 0.0 in
04:45 7.3 °F 7.0 °F 1017.5 in Calm     98 % 0.0 in
05:00 7.3 °F 7.0 °F 1017.8 in Calm   1.6 mph 98 % 0.0 in
05:15 7.5 °F 7.2 °F 1017.8 in Calm   1.6 mph 98 % 0.0 in
05:30 7.7 °F 7.4 °F 1017.8 in Calm     98 % 0.0 in
05:45 7.8 °F 7.5 °F 1017.8 in Calm     98 % 0.0 in
06:00 7.8 °F 7.4 °F 1017.8 in Calm   1.6 mph 97 % 0.0 in
06:15 8.0 °F 7.6 °F 1018.2 in Calm   4.8 mph 97 % 0.0 in
06:30 8.2 °F 7.6 °F 1018.2 in Calm   3.2 mph 96 % 0.0 in
06:45 8.2 °F 7.6 °F 1018.2 in Calm     96 % 0.0 in
07:00 8.2 °F 7.6 °F 1018.5 in Calm     96 % 0.0 in
07:15 8.2 °F 7.6 °F 1018.5 in Calm     96 % 0.0 in
07:30 8.2 °F 7.6 °F 1018.5 in Calm   1.6 mph 96 % 0.0 in
07:45 8.3 °F 7.5 °F 1018.5 in Calm   8.0 mph 95 % 0.0 in
08:00 8.7 °F 7.9 °F 1018.5 in Calm   1.6 mph 95 % 0.0 in
08:15 8.9 °F 8.0 °F 1018.5 in Calm     94 % 0.0 in
08:30 9.1 °F 8.1 °F 1018.5 in Calm     94 % 0.0 in
08:45 9.0 °F 8.1 °F 1018.8 in Calm     94 % 0.0 in
09:00 9.0 °F 8.7 °F 1018.8 in Calm     98 % 0.0 in
09:15 9.0 °F 7.9 °F 1018.8 in Calm   3.2 mph 93 % 0.0 in
09:30 8.9 °F 7.9 °F 1018.8 in Calm   8.0 mph 93 % 0.0 in
09:45 9.1 °F 7.9 °F 1018.8 in Calm     92 % 0.0 in
10:00 9.1 °F 7.8 °F 1019.2 in Calm   3.2 mph 92 % 0.0 in
10:15 9.0 °F 7.8 °F 1019.2 in Calm   4.8 mph 92 % 0.0 in
10:30 9.0 °F 7.8 °F 1019.2 in Calm     92 % 0.0 in
10:45 9.0 °F 7.9 °F 1019.2 in Calm     93 % 0.0 in
11:00 8.8 °F 7.6 °F 1019.5 in Calm     92 % 0.0 in
11:15 8.8 °F 7.7 °F 1019.5 in Calm     93 % 0.0 in
11:30 8.8 °F 7.9 °F 1019.5 in Calm     94 % 0.0 in
11:45 8.8 °F 7.9 °F 1019.5 in Calm     94 % 0.0 in
12:00 8.8 °F 7.9 °F 1019.5 in Calm     94 % 0.0 in
12:15 8.7 °F 7.8 °F 1019.9 in Calm     94 % 0.0 in
12:30 8.7 °F 7.9 °F 1019.9 in Calm     95 % 0.0 in
12:45 8.6 °F 7.8 °F 1019.9 in Calm     95 % 0.0 in
13:00 8.4 °F 7.6 °F 1020.2 in Calm     95 % 0.0 in
13:15 8.3 °F 7.5 °F 1020.2 in Calm     95 % 0.0 in
13:30 8.2 °F 7.6 °F 1020.5 in Calm     96 % 0.0 in
13:45 8.1 °F 7.5 °F 1020.5 in Calm     96 % 0.0 in
14:00 8.0 °F 7.4 °F 1020.5 in Calm     96 % 0.0 in
14:15 7.9 °F 7.3 °F 1020.5 in Calm     96 % 0.0 in
14:30 7.8 °F 7.2 °F 1020.9 in Calm   3.2 mph 96 % 0.0 in
14:45 7.8 °F 7.2 °F 1020.9 in Calm   1.6 mph 96 % 0.0 in
15:00 7.8 °F 7.4 °F 1020.9 in Calm   3.2 mph 97 % 0.0 in
15:15 7.8 °F 7.4 °F 1021.2 in Calm     97 % 0.0 in
15:30 7.8 °F 7.3 °F 1021.2 in Calm   4.8 mph 97 % 0.0 in
15:45 7.7 °F 7.3 °F 1021.2 in Calm     97 % 0.0 in
16:00 7.7 °F 7.2 °F 1021.2 in Calm     97 % 0.0 in
16:15 7.6 °F 7.2 °F 1021.6 in Calm   3.2 mph 97 % 0.0 in
16:30 7.6 °F 7.1 °F 1021.6 in Calm     97 % 0.0 in
16:45 7.5 °F 7.1 °F 1021.6 in Calm     97 % 0.0 in
17:00 7.6 °F 7.1 °F 1021.6 in Calm     97 % 0.0 in
17:15 7.6 °F 7.1 °F 1021.9 in Calm     97 % 0.0 in
17:30 7.6 °F 7.1 °F 1021.9 in Calm     97 % 0.0 in
17:45 7.5 °F 7.1 °F 1021.9 in Calm     97 % 0.0 in
18:00 7.5 °F 7.1 °F 1021.9 in Calm   1.6 mph 97 % 0.0 in
18:15 7.5 °F 7.1 °F 1022.2 in Calm   1.6 mph 97 % 0.0 in
18:30 7.5 °F 7.1 °F 1022.2 in Calm     97 % 0.0 in
18:45 7.5 °F 7.1 °F 1022.6 in Calm     97 % 0.0 in
19:00 7.6 °F 7.1 °F 1022.6 in Calm     97 % 0.0 in
19:15 7.6 °F 7.1 °F 1022.6 in Calm     97 % 0.0 in
19:30 7.6 °F 7.3 °F 1022.6 in Calm     98 % 0.0 in
19:45 7.6 °F 7.3 °F 1022.6 in Calm     98 % 0.0 in
20:00 7.7 °F 7.4 °F 1022.6 in Calm     98 % 0.0 in
20:15 7.7 °F 7.4 °F 1022.6 in Calm     98 % 0.0 in
20:30 7.7 °F 7.4 °F 1022.9 in Calm   1.6 mph 98 % 0.0 in
20:45 7.8 °F 7.5 °F 1022.9 in Calm     98 % 0.0 in
21:00 7.8 °F 7.5 °F 1023.2 in Calm     98 % 0.0 in
21:15 7.9 °F 7.6 °F 1023.2 in Calm     98 % 0.0 in
21:30 7.9 °F 7.6 °F 1023.2 in Calm     98 % 0.0 in
21:45 8.0 °F 7.7 °F 1023.2 in Calm     98 % 0.0 in
22:00 8.0 °F 7.7 °F 1023.6 in Calm     98 % 0.0 in
22:15 8.1 °F 7.8 °F 1023.6 in Calm     98 % 0.0 in
22:30 8.1 °F 7.8 °F 1023.6 in Calm     98 % 0.0 in
22:45 8.1 °F 7.8 °F 1023.9 in Calm     98 % 0.0 in
23:00 8.1 °F 7.8 °F 1023.9 in Calm   1.6 mph 98 % 0.0 in
23:30 8.1 °F 7.8 °F 1024.3 in Calm     98 % 0.0 in
23:45 8.2 °F 7.9 °F 1024.3 in Calm     98 % 0.0 in
Esan sääasema
Terveisin Weather Underground - 2.75 mb

Alkuperäinen skripti  Jim McMurry - jmcmurry@mwt.net Sovitettu myös templatelle  Wim van der Kuil - Leuven-Template.eu

Laitteet joita käytämme:

Sääasema
Davis VP2

Sääasemaohjelma
Cumulus

Sääaseman tietokone
Asus EeePC

Palveluntarjoaja
Suncomet

Davis VP2

Cumulus

Asus EeePC

Suncomet